Time;durP1;ratioP1;P1;durP2;ratioP2;P2;SDS_P1;SDS_P2;PMS_P1;PMS_P2;Temp;Humidity;BMP_temperature;BMP_pressure;BME280_temperature;BME280_humidity;BME280_pressure;Samples;Min_cycle;Max_cycle;Signal;HPM_P1;HPM_P2
2022/05/25 00:00:38;;;;;;;21.00;18.70;;;;;;;15.87;83.16;98220.54;220159;1274;22557;-70
2022/05/25 00:05:41;;;;;;;21.50;18.70;;;;;;;15.83;83.21;98227.30;220147;1274;23377;-71
2022/05/25 00:10:43;;;;;;;21.00;18.80;;;;;;;15.77;83.16;98223.20;220648;1275;370845;-71
2022/05/25 00:15:50;;;;;;;19.60;17.40;;;;;;;15.74;83.18;98213.85;221172;1274;23327;-70
2022/05/25 00:20:53;;;;;;;20.60;18.30;;;;;;;15.74;83.40;98215.30;221412;1273;23993;-70
2022/05/25 00:26:07;;;;;;;20.00;17.80;;;;;;;15.71;83.42;98216.98;220684;1277;25328;-71
2022/05/25 00:31:09;;;;;;;20.80;18.60;;;;;;;15.68;83.58;98227.38;220949;1275;23145;-70
2022/05/25 00:36:18;;;;;;;20.70;18.60;;;;;;;15.61;83.70;98225.21;220260;1277;25481;-70
2022/05/25 00:41:24;;;;;;;21.20;18.90;;;;;;;15.58;84.01;98227.36;220857;1275;22719;-70
2022/05/25 00:46:28;;;;;;;21.30;18.90;;;;;;;15.59;83.98;98219.75;220910;1275;23850;-70
2022/05/25 00:51:39;;;;;;;20.70;18.60;;;;;;;15.62;84.01;98214.60;219816;1275;24803;-70
2022/05/25 00:56:45;;;;;;;21.30;19.00;;;;;;;15.66;83.93;98217.89;219457;1278;22547;-70
2022/05/25 01:01:52;;;;;;;20.70;18.50;;;;;;;15.69;84.03;98226.24;220079;1274;22546;-70
2022/05/25 01:07:12;;;;;;;21.30;19.10;;;;;;;15.70;83.93;98227.91;219808;1274;25395;-69
2022/05/25 01:12:24;;;;;;;22.10;19.80;;;;;;;15.70;83.90;98233.30;219973;1274;22578;-70
2022/05/25 01:17:46;;;;;;;21.90;19.50;;;;;;;15.67;84.02;98243.14;219317;1277;22599;-69
2022/05/25 01:23:29;;;;;;;22.40;20.00;;;;;;;15.61;84.08;98239.65;220180;1274;24675;-70
2022/05/25 01:29:12;;;;;;;21.40;19.20;;;;;;;15.60;84.06;98245.98;219802;1274;22898;-70
2022/05/25 01:34:32;;;;;;;24.50;20.40;;;;;;;15.58;84.37;98249.78;219947;1277;22586;-71
2022/05/25 01:39:41;;;;;;;22.60;20.10;;;;;;;15.58;84.47;98249.02;219661;1274;25450;-70
2022/05/25 01:44:48;;;;;;;22.90;20.50;;;;;;;15.57;84.51;98246.60;219709;1274;25448;-70
2022/05/25 01:49:55;;;;;;;26.90;21.00;;;;;;;15.55;84.67;98242.54;220095;1274;26612;-70
2022/05/25 01:55:04;;;;;;;24.60;21.70;;;;;;;15.53;84.67;98240.52;221333;1274;23870;-70
2022/05/25 02:00:07;;;;;;;24.70;22.10;;;;;;;15.47;84.85;98246.17;221851;1274;22531;-71
2022/05/25 02:05:13;;;;;;;25.00;21.90;;;;;;;15.42;84.86;98253.94;221188;1275;23888;-70
2022/05/25 02:10:28;;;;;;;23.40;21.00;;;;;;;15.40;85.13;98255.84;219701;1274;25253;-69
2022/05/25 02:15:43;;;;;;;23.10;20.60;;;;;;;15.38;85.12;98255.27;219693;1274;25260;-70
2022/05/25 02:21:30;;;;;;;24.90;21.50;;;;;;;15.38;85.21;98256.43;219928;1274;23033;-71
2022/05/25 02:26:54;;;;;;;23.90;21.30;;;;;;;15.37;85.34;98261.10;219205;1274;26125;-69
2022/05/25 02:32:08;;;;;;;23.10;20.70;;;;;;;15.37;85.45;98265.82;219674;1277;22776;-69
2022/05/25 02:37:16;;;;;;;24.10;21.50;;;;;;;15.37;85.51;98265.96;219961;1274;25344;-70
2022/05/25 02:42:18;;;;;;;24.80;22.20;;;;;;;15.34;85.59;98273.65;220222;1277;22783;-70
2022/05/25 02:47:21;;;;;;;24.40;21.80;;;;;;;15.34;85.75;98276.81;219405;1274;25448;-70
2022/05/25 02:52:23;;;;;;;24.00;20.00;;;;;;;15.34;85.75;98276.27;220629;1274;27436;-70
2022/05/25 02:57:26;;;;;;;23.10;20.50;;;;;;;15.36;85.62;98278.98;219460;1274;25380;-70
2022/05/25 03:02:29;;;;;;;21.40;19.20;;;;;;;15.38;85.70;98273.34;219263;1275;25374;-70
2022/05/25 03:07:35;;;;;;;21.40;19.20;;;;;;;15.40;85.69;98271.10;219555;1275;25308;-69
2022/05/25 03:12:55;;;;;;;55.40;40.20;;;;;;;15.45;85.57;98267.09;220518;1274;25026;-69
2022/05/25 03:18:20;;;;;;;24.10;20.70;;;;;;;15.46;85.54;98270.15;219321;1274;22625;-71
2022/05/25 03:23:23;;;;;;;21.60;19.40;;;;;;;15.46;85.58;98275.46;221250;1274;22585;-71
2022/05/25 03:28:31;;;;;;;22.50;19.40;;;;;;;15.47;85.55;98278.94;219677;1274;22554;-71
2022/05/25 03:33:34;;;;;;;23.00;19.40;;;;;;;15.48;85.73;98275.60;219670;1274;24912;-70
2022/05/25 03:38:36;;;;;;;21.50;19.20;;;;;;;15.53;85.85;98277.63;223173;1273;22691;-69
2022/05/25 03:43:45;;;;;;;21.80;19.60;;;;;;;15.57;85.86;98273.61;219684;1276;22931;-70
2022/05/25 03:48:47;;;;;;;23.20;20.30;;;;;;;15.59;85.55;98270.50;219993;1274;22555;-70
2022/05/25 03:53:49;;;;;;;21.40;18.80;;;;;;;15.64;85.81;98268.11;219662;1274;22639;-71
2022/05/25 03:59:07;;;;;;;20.10;17.90;;;;;;;15.71;85.81;98259.31;221358;1274;22534;-71
2022/05/25 04:04:09;;;;;;;21.30;19.00;;;;;;;15.82;85.72;98256.48;220480;1274;26332;-70
2022/05/25 04:09:12;;;;;;;21.80;19.50;;;;;;;15.91;85.43;98265.64;219379;1274;22541;-70
2022/05/25 04:14:15;;;;;;;21.40;19.40;;;;;;;15.97;85.37;98273.79;219981;1274;24207;-71
2022/05/25 04:19:18;;;;;;;20.50;18.30;;;;;;;16.03;85.12;98276.53;222018;1274;22609;-70
2022/05/25 04:24:23;;;;;;;20.10;18.10;;;;;;;16.08;85.05;98269.52;219292;1275;24422;-70
2022/05/25 04:29:25;;;;;;;22.50;20.00;;;;;;;16.15;85.07;98273.84;219602;1274;22611;-69
2022/05/25 04:34:59;;;;;;;;;;;;;;;;;;;;;
2022/05/25 04:41:14;;;;;;;;;;;;;;;;;;;;;
2022/05/25 04:47:14;;;;;;;22.90;20.00;;;;;;;16.35;84.70;98244.19;219652;1274;23078;-69
2022/05/25 04:53:01;;;;;;;23.00;19.20;;;;;;;16.44;84.53;98242.73;219323;1275;24218;-69
2022/05/25 04:58:43;;;;;;;22.10;19.60;;;;;;;16.52;84.39;98231.09;220067;1273;24310;-71
2022/05/25 05:05:03;;;;;;;20.30;18.20;;;;;;;16.59;84.07;98239.34;219909;1274;22704;-70
2022/05/25 05:10:51;;;;;;;20.10;18.20;;;;;;;16.68;84.02;98246.70;219540;1274;24297;-71
2022/05/25 05:16:20;;;;;;;21.10;18.90;;;;;;;16.80;83.96;98245.64;219473;1274;22586;-71
2022/05/25 05:21:37;;;;;;;21.90;19.70;;;;;;;16.85;83.66;98245.86;219488;1274;23044;-71
2022/05/25 05:26:54;;;;;;;23.20;20.80;;;;;;;16.85;83.49;98250.75;219533;1274;25351;-71
2022/05/25 05:32:10;;;;;;;22.90;20.50;;;;;;;16.83;83.47;98254.86;219707;1274;24309;-70
2022/05/25 05:37:26;;;;;;;122.60;108.20;;;;;;;16.75;83.28;98265.52;219942;1276;25317;-67
2022/05/25 05:42:43;;;;;;;30.40;27.20;;;;;;;16.72;83.49;98265.45;218961;1273;22698;-67
2022/05/25 05:48:26;;;;;;;26.80;24.20;;;;;;;16.74;83.87;98271.52;221466;1274;25360;-68
2022/05/25 05:53:30;;;;;;;22.40;20.10;;;;;;;16.77;84.17;98270.37;220220;1274;25254;-68
2022/05/25 05:58:32;;;;;;;22.80;19.40;;;;;;;16.72;84.22;98278.27;219139;1274;23042;-69
2022/05/25 06:03:38;;;;;;;21.70;19.50;;;;;;;16.60;84.10;98285.47;218471;1274;24231;-69
2022/05/25 06:08:42;;;;;;;20.60;18.50;;;;;;;16.47;84.45;98291.64;220622;1274;23795;-68
2022/05/25 06:13:45;;;;;;;20.90;18.70;;;;;;;16.35;84.55;98297.59;219111;1274;26393;-68
2022/05/25 06:24:11;;;;;;;19.50;17.70;;;;;;;16.02;84.79;98304.98;219134;1274;22560;-67
2022/05/25 06:29:28;;;;;;;27.00;19.30;;;;;;;15.79;84.98;98318.95;219352;1273;25576;-66
2022/05/25 06:34:51;;;;;;;18.80;15.00;;;;;;;15.56;85.53;98335.96;219591;1274;22767;-69
2022/05/25 06:39:54;;;;;;;14.50;13.00;;;;;;;15.37;86.00;98337.91;219369;1273;22537;-70
2022/05/25 06:44:56;;;;;;;10.80;9.50;;;;;;;15.25;86.53;98334.58;219274;1274;26013;-67
2022/05/25 06:50:13;;;;;;;7.90;7.10;;;;;;;15.13;87.11;98337.48;219058;1273;23970;-69
2022/05/25 06:55:26;;;;;;;8.20;7.00;;;;;;;14.86;87.44;98327.96;220728;1274;23106;-70
2022/05/25 07:00:29;;;;;;;8.50;7.70;;;;;;;14.59;87.79;98333.05;219444;1274;22625;-69
2022/05/25 07:05:57;;;;;;;11.20;7.60;;;;;;;14.30;88.41;98327.54;219359;1275;23964;-69
2022/05/25 07:11:34;;;;;;;;;;;;;;;;;;;;;
2022/05/25 07:17:05;;;;;;;9.30;8.10;;;;;;;13.90;89.91;98338.05;221189;1273;23027;-70
2022/05/25 07:22:11;;;;;;;8.70;7.70;;;;;;;13.82;90.30;98342.48;221671;1273;22627;-68
2022/05/25 07:27:20;;;;;;;7.30;6.60;;;;;;;13.72;90.33;98353.36;220472;1274;24334;-69
2022/05/25 07:32:22;;;;;;;5.40;4.90;;;;;;;13.49;89.83;98362.61;219606;1274;22638;-69
2022/05/25 07:37:32;;;;;;;6.40;4.30;;;;;;;13.19;89.40;98373.94;218987;1276;22749;-69
2022/05/25 07:42:38;;;;;;;4.70;4.20;;;;;;;12.85;89.31;98374.09;221707;1274;22528;-70
2022/05/25 07:48:01;;;;;;;;;;;;;;;;;;;;;
2022/05/25 07:53:56;;;;;;;5.40;3.80;;;;;;;12.51;90.38;98378.17;219248;1274;23141;-69
2022/05/25 07:59:31;;;;;;;5.50;4.10;;;;;;;12.35;90.78;98374.35;221612;1274;26530;-69
2022/05/25 08:10:31;;;;;;;4.90;3.80;;;;;;;12.11;91.06;98376.48;221786;1273;22722;-70
2022/05/25 08:15:43;;;;;;;3.80;3.40;;;;;;;12.07;91.40;98384.40;218996;1274;22585;-69
2022/05/25 08:21:06;;;;;;;4.00;3.50;;;;;;;12.06;91.51;98393.94;222416;1274;22539;-69
2022/05/25 08:26:08;;;;;;;4.00;3.60;;;;;;;12.08;91.46;98407.10;221488;1274;22576;-69
2022/05/25 08:31:13;;;;;;;3.80;3.40;;;;;;;12.05;91.34;98436.17;219398;1273;22531;-70
2022/05/25 08:36:16;;;;;;;4.50;2.80;;;;;;;11.98;91.21;98444.44;219915;1274;24239;-69
2022/05/25 08:41:27;;;;;;;4.40;3.60;;;;;;;12.03;91.96;98444.75;219491;1274;24205;-69
2022/05/25 08:46:49;;;;;;;4.30;3.20;;;;;;;12.10;91.81;98445.02;221172;1274;22778;-69
2022/05/25 08:52:02;;;;;;;3.00;2.80;;;;;;;12.09;91.45;98456.89;219413;1274;22560;-68
2022/05/25 08:57:27;;;;;;;2.80;2.60;;;;;;;12.07;91.56;98471.34;220588;1274;22550;-67
2022/05/25 09:02:58;;;;;;;3.20;2.50;;;;;;;12.03;91.20;98484.77;219229;1274;22577;-69
2022/05/25 09:08:12;;;;;;;3.80;3.20;;;;;;;12.01;91.28;98485.77;220182;1274;25245;-68
2022/05/25 09:13:44;;;;;;;3.80;3.50;;;;;;;12.08;91.87;98495.53;219040;1273;22606;-70
2022/05/25 09:19:31;;;;;;;4.00;3.60;;;;;;;12.17;92.04;98516.00;218593;1276;22560;-68
2022/05/25 09:24:51;;;;;;;3.90;3.50;;;;;;;12.21;92.07;98533.30;219224;1274;24268;-69
2022/05/25 09:30:13;;;;;;;3.70;3.30;;;;;;;12.18;91.47;98531.94;219562;1274;22664;-69
2022/05/25 09:35:47;;;;;;;2.80;2.50;;;;;;;12.13;91.63;98530.01;219488;1274;22547;-68
2022/05/25 09:41:10;;;;;;;3.60;3.30;;;;;;;12.11;91.47;98521.80;220128;1273;22567;-68
2022/05/25 09:46:37;;;;;;;2.60;2.10;;;;;;;12.12;91.60;98505.70;219696;1274;22800;-68
2022/05/25 09:51:40;;;;;;;2.40;2.20;;;;;;;12.14;91.72;98497.60;220230;1273;24184;-68
2022/05/25 09:56:50;;;;;;;4.70;3.80;;;;;;;12.27;92.09;98512.10;219505;1273;22663;-68
2022/05/25 10:02:00;;;;;;;;;;;;;;;12.52;92.39;98524.64;220157;1273;25410;-67
2022/05/25 10:07:25;;;;;;;4.10;3.50;;;;;;;12.67;91.84;98534.34;219270;1274;25354;-68
2022/05/25 10:12:43;;;;;;;3.40;3.10;;;;;;;12.68;91.30;98536.37;219563;1273;22535;-67
2022/05/25 10:17:47;;;;;;;4.40;2.80;;;;;;;12.73;91.65;98533.42;220673;1274;22679;-67
2022/05/25 10:23:11;;;;;;;3.50;3.20;;;;;;;12.74;91.49;98534.78;219456;1274;26502;-68
2022/05/25 10:28:38;;;;;;;3.30;3.00;;;;;;;12.74;91.60;98544.30;219448;1274;23060;-67
2022/05/25 10:39:33;;;;;;;3.60;3.30;;;;;;;12.87;92.13;98553.20;219441;1274;22661;-68
2022/05/25 10:45:11;;;;;;;3.60;3.30;;;;;;;12.98;91.95;98558.76;221291;1274;22578;-68
2022/05/25 10:50:21;;;;;;;3.80;3.30;;;;;;;13.09;91.57;98561.82;219085;1274;22497;-68
2022/05/25 10:55:37;;;;;;;4.30;3.40;;;;;;;13.05;90.95;98575.89;219021;1276;24469;-68
2022/05/25 11:00:52;;;;;;;5.20;3.90;;;;;;;13.01;90.94;98579.01;219878;1273;22594;-66
2022/05/25 11:06:56;;;;;;;;;;;;;;;;;;;;;
2022/05/25 11:13:15;;;;;;;;;;;;;;;;;;;;;
2022/05/25 11:19:15;;;;;;;1.30;1.20;;;;;;;12.33;89.40;98613.38;219870;1273;23677;-67
2022/05/25 11:24:42;;;;;;;1.70;1.10;;;;;;;12.12;89.73;98613.57;219700;1274;22586;-68
2022/05/25 11:29:59;;;;;;;2.10;1.60;;;;;;;11.96;90.44;98604.63;219377;1273;22546;-67
2022/05/25 11:35:48;;;;;;;2.30;1.50;;;;;;;11.94;91.05;98595.98;219252;1273;24243;-65
2022/05/25 11:41:00;;;;;;;1.30;1.10;;;;;;;12.03;91.50;98586.78;225039;1273;25371;-68
2022/05/25 11:46:20;;;;;;;1.60;1.50;;;;;;;12.15;91.32;98578.35;219627;1274;24210;-68
2022/05/25 11:52:08;;;;;;;1.70;1.40;;;;;;;12.33;91.38;98590.39;219473;1273;23510;-67
2022/05/25 11:57:45;;;;;;;1.60;1.50;;;;;;;12.45;91.19;98603.11;220484;1273;24784;-67
2022/05/25 12:03:43;;;;;;;1.40;1.30;;;;;;;12.50;90.83;98611.66;219337;1274;22563;-67
2022/05/25 12:08:58;;;;;;;2.10;1.50;;;;;;;12.57;91.17;98606.42;219136;1274;22538;-67
2022/05/25 12:14:17;;;;;;;1.50;1.40;;;;;;;12.81;91.06;98601.67;219033;1273;453608;-67
2022/05/25 12:19:36;;;;;;;2.00;1.40;;;;;;;13.13;91.08;98610.80;220626;1273;25437;-67
2022/05/25 12:24:56;;;;;;;1.70;1.60;;;;;;;13.43;90.83;98614.39;219365;1273;22578;-68
2022/05/25 12:30:39;;;;;;;2.10;1.90;;;;;;;13.50;89.82;98620.93;219610;1273;22657;-67
2022/05/25 12:35:42;;;;;;;1.70;1.60;;;;;;;13.53;89.58;98628.50;219968;1274;25393;-67
2022/05/25 12:40:49;;;;;;;1.60;1.50;;;;;;;13.56;89.47;98631.40;219052;1274;22544;-69
2022/05/25 12:51:43;;;;;;;1.20;1.10;;;;;;;13.69;89.53;98620.04;219571;1274;26496;-68
2022/05/25 12:56:55;;;;;;;5.00;3.70;;;;;;;13.86;89.28;98611.97;222228;1274;23875;-67
2022/05/25 13:02:29;;;;;;;1.80;1.60;;;;;;;13.97;88.57;98616.66;220208;1273;25393;-70
2022/05/25 13:08:01;;;;;;;1.40;1.20;;;;;;;14.04;88.29;98616.06;220676;1273;24229;-68
2022/05/25 13:13:36;;;;;;;2.20;1.50;;;;;;;14.22;88.34;98609.14;218980;1275;24236;-68
2022/05/25 13:18:57;;;;;;;1.70;1.50;;;;;;;14.42;88.06;98607.70;219929;1273;22551;-69
2022/05/25 13:24:36;;;;;;;1.50;1.40;;;;;;;14.58;87.67;98616.20;219832;1274;22546;-69
2022/05/25 13:30:01;;;;;;;2.30;1.80;;;;;;;14.73;87.32;98610.92;218813;1274;26484;-67
2022/05/25 13:35:32;;;;;;;14.40;8.30;;;;;;;14.95;87.25;98615.80;218922;1273;22784;-69
2022/05/25 13:40:45;;;;;;;12.80;5.50;;;;;;;15.10;86.60;98614.23;218594;1275;22608;-68
2022/05/25 13:45:54;;;;;;;6.10;3.40;;;;;;;15.09;85.86;98617.70;219127;1273;22617;-68
2022/05/25 13:50:59;;;;;;;4.60;2.80;;;;;;;14.96;84.84;98646.05;219498;1274;22555;-68
2022/05/25 13:56:11;;;;;;;4.20;2.80;;;;;;;14.81;84.99;98647.95;219652;1274;22553;-68
2022/05/25 14:01:19;;;;;;;5.50;3.30;;;;;;;14.85;85.64;98635.26;219918;1273;22786;-69
2022/05/25 14:06:22;;;;;;;4.90;3.50;;;;;;;14.89;85.76;98645.81;220173;1274;25397;-69
2022/05/25 14:11:40;;;;;;;7.50;3.70;;;;;;;14.79;85.35;98658.05;219600;1276;22549;-68
2022/05/25 14:16:49;;;;;;;3.30;2.10;;;;;;;14.70;85.44;98663.13;219666;1274;22585;-67
2022/05/25 14:21:54;;;;;;;7.00;5.80;;;;;;;14.62;85.09;98666.77;219731;1276;22538;-67
2022/05/25 14:27:38;;;;;;;3.90;3.50;;;;;;;14.75;85.82;98655.26;219927;1274;25400;-69
2022/05/25 14:33:04;;;;;;;1.80;1.70;;;;;;;15.01;85.19;98669.38;220175;1274;22572;-67
2022/05/25 14:38:09;;;;;;;1.80;1.70;;;;;;;15.29;85.67;98667.60;219872;1273;24715;-68
2022/05/25 14:43:42;;;;;;;1.80;1.70;;;;;;;15.35;84.16;98673.23;220051;1273;25441;-69
2022/05/25 14:48:48;;;;;;;1.60;1.50;;;;;;;15.13;82.70;98658.25;219942;1275;25903;-68
2022/05/25 14:54:05;;;;;;;1.40;1.30;;;;;;;14.92;83.01;98676.75;220072;1274;25384;-68
2022/05/25 14:59:09;;;;;;;1.90;1.60;;;;;;;14.78;83.53;98702.27;219858;1274;24062;-67
2022/05/25 15:04:32;;;;;;;4.20;2.80;;;;;;;14.72;84.05;98701.26;220286;1273;22536;-69
2022/05/25 15:09:38;;;;;;;3.80;2.10;;;;;;;14.68;84.60;98700.40;220205;1273;22609;-69
2022/05/25 15:20:47;;;;;;;5.20;4.60;;;;;;;14.81;85.82;98711.51;219909;1273;22723;-68
2022/05/25 15:26:23;;;;;;;;;;;;;;;;;;;;;
2022/05/25 15:31:29;;;;;;;5.00;3.10;;;;;;;14.73;85.27;98715.30;219806;1273;22555;-69
2022/05/25 15:36:52;;;;;;;2.60;2.40;;;;;;;14.66;85.28;98713.94;219853;1273;25310;-69
2022/05/25 15:43:11;;;;;;;2.20;2.00;;;;;;;14.53;84.79;98711.08;219680;1273;22584;-69
2022/05/25 15:48:36;;;;;;;1.70;1.40;;;;;;;14.37;84.75;98716.23;220023;1273;22659;-68
2022/05/25 15:53:50;;;;;;;2.10;1.90;;;;;;;14.21;84.92;98722.91;220096;1273;22551;-67
2022/05/25 15:59:23;;;;;;;3.40;2.50;;;;;;;14.07;85.29;98717.84;220029;1274;23879;-68
2022/05/25 16:04:42;;;;;;;2.50;2.30;;;;;;;14.02;86.10;98722.73;220007;1274;24225;-69
2022/05/25 16:10:01;;;;;;;6.20;3.30;;;;;;;14.07;86.68;98731.75;220087;1274;24228;-68
2022/05/25 16:15:22;;;;;;;10.50;7.00;;;;;;;14.11;86.67;98739.12;219735;1274;25869;-69
2022/05/25 16:20:30;;;;;;;5.80;3.80;;;;;;;14.18;87.19;98738.95;220190;1273;22561;-69
2022/05/25 16:25:39;;;;;;;4.30;3.60;;;;;;;14.27;87.43;98730.45;219716;1274;22710;-68
2022/05/25 16:30:41;;;;;;;3.40;3.00;;;;;;;14.30;87.18;98732.89;219937;1274;22690;-69
2022/05/25 16:35:52;;;;;;;6.50;5.50;;;;;;;14.21;86.74;98727.80;219925;1274;24274;-70
2022/05/25 16:40:55;;;;;;;6.00;4.90;;;;;;;14.10;86.64;98729.80;220130;1274;23816;-68
2022/05/25 16:46:21;;;;;;;5.30;4.40;;;;;;;14.02;86.98;98734.68;219903;1274;22560;-70
2022/05/25 16:51:39;;;;;;;3.40;2.70;;;;;;;13.98;86.99;98734.52;219523;1277;22576;-69
2022/05/25 16:56:43;;;;;;;5.70;2.40;;;;;;;14.03;87.47;98730.73;219778;1274;22547;-68
2022/05/25 17:01:49;;;;;;;3.20;2.90;;;;;;;14.07;87.33;98724.66;219896;1274;24424;-69
2022/05/25 17:06:52;;;;;;;3.60;3.30;;;;;;;14.10;87.67;98725.04;219818;1274;25403;-68
2022/05/25 17:11:56;;;;;;;2.60;2.40;;;;;;;14.25;88.48;98729.58;220093;1274;22556;-69
2022/05/25 17:16:59;;;;;;;2.90;2.30;;;;;;;14.58;89.20;98729.48;219948;1274;22537;-68
2022/05/25 17:22:02;;;;;;;3.20;2.90;;;;;;;14.78;87.76;98731.17;220238;1274;22539;-68
2022/05/25 17:27:10;;;;;;;3.10;2.80;;;;;;;14.88;86.90;98727.68;219955;1277;22582;-69
2022/05/25 17:32:12;;;;;;;4.20;3.80;;;;;;;14.86;85.78;98739.54;219999;1274;22554;-68
2022/05/25 17:42:36;;;;;;;3.70;3.40;;;;;;;14.86;85.02;98728.45;219744;1274;22708;-69
2022/05/25 17:47:39;;;;;;;6.10;5.20;;;;;;;14.60;85.02;98739.06;219775;1274;22544;-68
2022/05/25 17:52:43;;;;;;;6.10;3.70;;;;;;;14.41;85.29;98751.43;220028;1274;22640;-70
2022/05/25 17:57:45;;;;;;;6.90;5.10;;;;;;;14.28;85.59;98755.91;219941;1274;22731;-69
2022/05/25 18:02:50;;;;;;;6.50;4.60;;;;;;;14.16;85.75;98759.41;220089;1274;24272;-69
2022/05/25 18:07:53;;;;;;;6.20;5.60;;;;;;;13.97;85.53;98767.14;220192;1274;22534;-68
2022/05/25 18:12:55;;;;;;;7.30;6.60;;;;;;;13.80;86.11;98766.25;220190;1274;25387;-69
2022/05/25 18:18:16;;;;;;;5.90;5.40;;;;;;;13.69;86.42;98768.52;220012;1274;22681;-68
2022/05/25 18:23:38;;;;;;;6.00;4.30;;;;;;;13.59;86.77;98763.73;219722;1274;22560;-70
2022/05/25 18:28:40;;;;;;;6.60;5.10;;;;;;;13.46;86.95;98763.59;219784;1273;22643;-72
2022/05/25 18:33:43;;;;;;;6.20;5.60;;;;;;;13.35;87.24;98767.58;219998;1274;23487;-67
2022/05/25 18:38:45;;;;;;;6.90;6.30;;;;;;;13.27;87.42;98773.94;219897;1274;22542;-69
2022/05/25 18:43:48;;;;;;;5.90;5.30;;;;;;;13.19;87.81;98774.50;219828;1274;25410;-69
2022/05/25 18:48:52;;;;;;;6.80;6.10;;;;;;;13.14;88.14;98776.73;219884;1274;22614;-69
2022/05/25 18:53:54;;;;;;;6.10;5.60;;;;;;;13.05;88.43;98777.20;220097;1275;24321;-69
2022/05/25 18:58:57;;;;;;;6.20;5.60;;;;;;;12.98;88.80;98778.77;220030;1274;23703;-68
2022/05/25 19:04:00;;;;;;;7.80;7.00;;;;;;;12.92;89.12;98778.73;220086;1274;22557;-68
2022/05/25 19:09:06;;;;;;;9.70;7.90;;;;;;;12.86;89.53;98781.77;220066;1277;24826;-68
2022/05/25 19:14:15;;;;;;;13.80;9.50;;;;;;;12.81;89.74;98783.05;219896;1275;22550;-68
2022/05/25 19:19:50;;;;;;;15.00;11.50;;;;;;;12.78;90.13;98792.76;219985;1274;24323;-68
2022/05/25 19:24:56;;;;;;;14.60;11.30;;;;;;;12.74;90.41;98798.01;219882;1275;22569;-68
2022/05/25 19:30:06;;;;;;;14.80;12.00;;;;;;;12.70;90.61;98796.47;219889;1274;22555;-69
2022/05/25 19:35:19;;;;;;;;;;;;;;;12.65;90.81;98798.17;220115;1276;22602;-68
2022/05/25 19:40:48;;;;;;;12.60;11.30;;;;;;;12.59;91.02;98794.66;219887;1275;24458;-69
2022/05/25 19:45:52;;;;;;;18.60;14.40;;;;;;;12.49;91.04;98797.92;220018;1275;23800;-67
2022/05/25 19:50:55;;;;;;;18.60;15.70;;;;;;;12.38;91.05;98801.27;219888;1275;22557;-69
2022/05/25 19:56:05;;;;;;;20.60;15.90;;;;;;;12.26;91.19;98802.24;219970;1277;22625;-69
2022/05/25 20:01:18;;;;;;;20.70;16.70;;;;;;;12.17;91.47;98810.80;219599;1275;26447;-69
2022/05/25 20:06:20;;;;;;;22.20;18.50;;;;;;;12.07;91.86;98813.70;219716;1274;24243;-70
2022/05/25 20:11:22;;;;;;;23.30;18.30;;;;;;;11.97;91.77;98805.08;220455;1277;22660;-69
2022/05/25 20:16:24;;;;;;;24.80;20.50;;;;;;;11.85;91.73;98810.27;220210;1277;23158;-69
2022/05/25 20:21:26;;;;;;;24.30;19.30;;;;;;;11.73;92.17;98809.07;219767;1276;22719;-68
2022/05/25 20:26:28;;;;;;;24.50;20.40;;;;;;;11.66;92.68;98818.96;219836;1274;22696;-68
2022/05/25 20:31:34;;;;;;;25.30;20.70;;;;;;;11.59;92.83;98816.67;219755;1274;22569;-68
2022/05/25 20:36:50;;;;;;;25.10;20.60;;;;;;;11.52;93.18;98817.96;220135;1275;22543;-69
2022/05/25 20:42:12;;;;;;;25.60;21.60;;;;;;;11.42;93.10;98816.06;219829;1274;25360;-69
2022/05/25 20:47:15;;;;;;;26.80;21.90;;;;;;;11.35;93.26;98816.73;219496;1278;22687;-68
2022/05/25 20:52:18;;;;;;;29.00;23.20;;;;;;;11.28;93.61;98808.58;220336;1274;22634;-68
2022/05/25 20:57:28;;;;;;;28.60;22.90;;;;;;;11.22;93.77;98802.08;220141;1274;25505;-69
2022/05/25 21:02:40;;;;;;;;;;;;;;;;;;;;;
2022/05/25 21:07:47;;;;;;;25.00;20.50;;;;;;;11.08;93.90;98804.27;220035;1274;22556;-68
2022/05/25 21:12:50;;;;;;;37.70;30.10;;;;;;;11.02;94.11;98803.74;220356;1274;25213;-68
2022/05/25 21:17:52;;;;;;;32.60;27.30;;;;;;;10.98;94.37;98816.30;219742;1275;22494;-69
2022/05/25 21:23:22;;;;;;;26.80;21.20;;;;;;;10.94;94.48;98821.33;219963;1275;25251;-67
2022/05/25 21:35:45;;;;;;;25.70;19.90;;;;;;;10.81;94.32;98831.10;219543;1274;22611;-65
2022/05/25 21:40:48;;;;;;;27.00;20.30;;;;;;;10.73;94.30;98835.06;220062;1275;22673;-67
2022/05/25 21:51:24;;;;;;;27.20;20.90;;;;;;;10.55;94.19;98837.38;219973;1274;26458;-68
2022/05/25 21:56:27;;;;;;;34.50;26.00;;;;;;;10.45;94.20;98840.27;220303;1274;22564;-68
2022/05/25 22:01:33;;;;;;;33.30;25.80;;;;;;;10.37;94.21;98839.40;220021;1274;22579;-68
2022/05/25 22:06:56;;;;;;;34.70;25.30;;;;;;;10.29;94.33;98832.66;219969;1277;25257;-68
2022/05/25 22:12:04;;;;;;;33.50;24.30;;;;;;;10.22;94.33;98827.81;220124;1274;25377;-68
2022/05/25 22:17:06;;;;;;;30.20;23.10;;;;;;;10.15;94.49;98824.73;220212;1274;24767;-69
2022/05/25 22:22:09;;;;;;;32.90;24.00;;;;;;;10.09;94.72;98828.80;220020;1274;25367;-69
2022/05/25 22:27:22;;;;;;;34.10;24.20;;;;;;;10.05;94.92;98830.29;220016;1274;25393;-68
2022/05/25 22:32:36;;;;;;;36.90;25.30;;;;;;;10.02;95.24;98826.89;219807;1274;27720;-67
2022/05/25 22:37:41;;;;;;;36.60;26.40;;;;;;;9.99;95.20;98828.42;219953;1274;25264;-68
2022/05/25 22:43:07;;;;;;;41.20;27.60;;;;;;;9.94;95.16;98829.02;220020;1274;25248;-68
2022/05/25 22:48:09;;;;;;;37.90;27.60;;;;;;;9.90;95.24;98826.69;220364;1274;25377;-68
2022/05/25 22:53:12;;;;;;;41.10;28.60;;;;;;;9.87;95.84;98826.08;220105;1274;22586;-68
2022/05/25 22:58:24;;;;;;;42.90;30.60;;;;;;;9.87;95.98;98826.98;220283;1274;25383;-68
2022/05/25 23:03:29;;;;;;;42.50;28.50;;;;;;;9.85;96.16;98828.08;220210;1274;22768;-67
2022/05/25 23:08:32;;;;;;;43.70;30.90;;;;;;;9.83;96.26;98825.16;220256;1274;25352;-68
2022/05/25 23:13:43;;;;;;;42.80;30.20;;;;;;;9.79;96.46;98822.62;219960;1274;25534;-68
2022/05/25 23:18:51;;;;;;;42.00;30.40;;;;;;;9.74;96.23;98819.72;220289;1274;25316;-67
2022/05/25 23:23:59;;;;;;;43.00;29.90;;;;;;;9.71;96.46;98822.54;219826;1276;25493;-68
2022/05/25 23:29:19;;;;;;;47.60;31.80;;;;;;;9.67;96.48;98822.19;219751;1277;24355;-67
2022/05/25 23:34:35;;;;;;;48.60;30.60;;;;;;;9.65;96.64;98814.40;220089;1274;22483;-68
2022/05/25 23:39:39;;;;;;;46.20;31.10;;;;;;;9.62;96.73;98818.85;220147;1274;22557;-67
2022/05/25 23:45:00;;;;;;;;;;;;;;;;;;;;;
2022/05/25 23:50:48;;;;;;;49.20;32.50;;;;;;;9.62;97.18;98824.70;219995;1274;22557;-68
2022/05/25 23:55:57;;;;;;;49.00;30.50;;;;;;;9.59;96.95;98818.46;220240;1274;25471;-69
